createdAt,value
2023-11-19T00:02:53.907Z,93.27
2023-11-19T00:05:57.953Z,93.22
2023-11-19T00:09:01.266Z,93.61
2023-11-19T00:12:08.300Z,93.29
2023-11-19T00:15:15.351Z,93.54
2023-11-19T00:18:18.097Z,94.06
2023-11-19T00:21:23.057Z,94.15
2023-11-19T00:24:25.676Z,93.54
2023-11-19T00:27:28.042Z,93.89
2023-11-19T00:30:32.460Z,94.45
2023-11-19T00:36:47.211Z,94.24
2023-11-19T00:39:49.771Z,94.43
2023-11-19T00:42:52.819Z,94.48
2023-11-19T00:45:55.332Z,94.45
2023-11-19T00:49:06.573Z,94.87
2023-11-19T00:52:08.969Z,94.42
2023-11-19T00:55:12.801Z,94.69
2023-11-19T00:58:18.525Z,94.43
2023-11-19T01:01:21.801Z,95.11
2023-11-19T01:04:25.513Z,95.00
2023-11-19T01:07:28.641Z,94.95
2023-11-19T01:10:31.428Z,94.87
2023-11-19T01:13:44.196Z,94.24
2023-11-19T01:17:15.337Z,94.54
2023-11-19T01:20:33.984Z,94.60
2023-11-19T01:27:40.111Z,94.71
2023-11-19T01:31:10.075Z,94.12
2023-11-19T01:34:24.784Z,93.78
2023-11-19T01:37:48.393Z,93.76
2023-11-19T01:41:21.061Z,94.11
2023-11-19T01:44:36.985Z,95.16
2023-11-19T01:51:17.173Z,94.44
2023-11-19T01:54:37.884Z,94.71
2023-11-19T01:58:03.119Z,94.86
2023-11-19T02:01:38.121Z,94.62
2023-11-19T02:05:13.105Z,94.76
2023-11-19T02:08:32.881Z,95.49
2023-11-19T02:11:49.417Z,94.38
2023-11-19T02:14:57.365Z,95.53
2023-11-19T02:18:29.947Z,95.68
2023-11-19T02:22:03.474Z,96.03
2023-11-19T02:25:34.900Z,96.60
2023-11-19T02:32:09.349Z,98.62
2023-11-19T02:39:06.574Z,100.00
2023-11-19T02:42:26.098Z,100.00
2023-11-19T02:46:02.193Z,100.00
2023-11-19T02:49:18.964Z,100.00
2023-11-19T02:52:50.284Z,100.00
2023-11-19T02:56:01.867Z,100.00
2023-11-19T02:59:30.459Z,100.00
2023-11-19T03:03:05.740Z,100.00
2023-11-19T03:06:27.708Z,100.00
2023-11-19T03:09:54.106Z,100.00
2023-11-19T03:13:06.354Z,100.00
2023-11-19T03:16:22.849Z,100.00
2023-11-19T03:20:08.543Z,100.00
2023-11-19T03:23:28.480Z,100.00
2023-11-19T03:27:03.100Z,100.00
2023-11-19T03:33:51.464Z,100.00
2023-11-19T03:36:58.242Z,100.00
2023-11-19T03:40:23.976Z,100.00
2023-11-19T03:43:47.023Z,100.00
2023-11-19T03:47:13.885Z,100.00
2023-11-19T03:50:45.728Z,100.00
2023-11-19T03:54:18.933Z,100.00
2023-11-19T03:57:31.121Z,100.00
2023-11-19T04:00:51.886Z,100.00
2023-11-19T04:04:24.565Z,100.00
2023-11-19T04:08:04.630Z,100.00
2023-11-19T04:11:21.909Z,100.00
2023-11-19T04:14:31.315Z,100.00
2023-11-19T04:17:58.718Z,100.00
2023-11-19T04:21:13.615Z,100.00
2023-11-19T04:24:41.790Z,100.00
2023-11-19T04:31:14.044Z,100.00
2023-11-19T04:34:20.868Z,100.00
2023-11-19T04:37:35.673Z,100.00
2023-11-19T04:44:08.119Z,100.00
2023-11-19T04:47:27.822Z,100.00
2023-11-19T04:51:21.038Z,100.00
2023-11-19T04:54:43.932Z,100.00
2023-11-19T04:58:22.903Z,100.00
2023-11-19T05:01:32.406Z,100.00
2023-11-19T05:04:59.330Z,100.00
2023-11-19T05:08:33.372Z,100.00
2023-11-19T05:12:17.201Z,100.00
2023-11-19T05:15:49.648Z,100.00
2023-11-19T05:19:15.260Z,100.00
2023-11-19T05:22:31.554Z,100.00
2023-11-19T05:26:00.430Z,100.00
2023-11-19T05:29:14.294Z,100.00
2023-11-19T05:33:09.669Z,100.00
2023-11-19T05:36:19.360Z,100.00
2023-11-19T05:39:33.535Z,100.00
2023-11-19T05:43:01.621Z,100.00
2023-11-19T05:46:19.911Z,100.00
2023-11-19T05:49:38.121Z,100.00
2023-11-19T05:52:54.170Z,100.00
2023-11-19T05:56:40.829Z,100.00
2023-11-19T06:00:13.356Z,100.00
2023-11-19T06:03:39.192Z,100.00
2023-11-19T06:06:53.809Z,100.00
2023-11-19T06:10:34.567Z,100.00
2023-11-19T06:14:16.537Z,100.00
2023-11-19T06:18:07.000Z,100.00
2023-11-19T06:21:30.269Z,100.00
2023-11-19T06:24:44.101Z,100.00
2023-11-19T06:27:59.236Z,100.00
2023-11-19T06:31:11.958Z,100.00
2023-11-19T06:34:33.068Z,100.00
2023-11-19T06:38:09.790Z,100.00
2023-11-19T06:41:32.824Z,100.00
2023-11-19T06:45:06.988Z,100.00
2023-11-19T06:48:15.198Z,100.00
2023-11-19T06:51:50.383Z,100.00
2023-11-19T06:58:24.700Z,100.00
2023-11-19T07:01:48.987Z,100.00
2023-11-19T07:04:56.710Z,100.00
2023-11-19T07:08:18.489Z,100.00
2023-11-19T07:11:47.104Z,100.00
2023-11-19T07:15:29.389Z,100.00
2023-11-19T07:18:47.154Z,100.00
2023-11-19T07:25:40.446Z,100.00
2023-11-19T07:29:30.420Z,100.00
2023-11-19T07:36:51.579Z,96.96
2023-11-19T07:43:44.957Z,91.53
2023-11-19T07:46:55.964Z,87.85
2023-11-19T07:50:39.824Z,85.72
2023-11-19T07:54:14.751Z,88.30
2023-11-19T08:01:10.490Z,87.45
2023-11-19T08:04:29.295Z,87.97
2023-11-19T08:07:40.420Z,84.32
2023-11-19T08:11:14.961Z,83.16
2023-11-19T08:14:23.898Z,81.03
2023-11-19T08:17:51.473Z,75.71
2023-11-19T08:24:47.970Z,79.48
2023-11-19T08:28:19.679Z,80.32
2023-11-19T08:31:34.566Z,81.88
2023-11-19T08:38:47.071Z,80.54
2023-11-19T08:42:21.676Z,84.94
2023-11-19T08:46:01.494Z,81.72
2023-11-19T08:49:29.678Z,85.43
2023-11-19T08:52:54.154Z,86.46
2023-11-19T08:56:51.660Z,85.53
2023-11-19T09:03:56.276Z,81.82
2023-11-19T09:07:25.329Z,82.25
2023-11-19T09:10:42.188Z,81.15
2023-11-19T09:14:03.665Z,77.03
2023-11-19T09:17:38.710Z,75.91
2023-11-19T09:21:29.029Z,76.93
2023-11-19T09:24:44.116Z,75.89
2023-11-19T09:27:57.989Z,77.97
2023-11-19T09:31:19.981Z,80.72
2023-11-19T09:34:40.272Z,82.59
2023-11-19T09:42:17.155Z,81.47
2023-11-19T09:49:41.979Z,79.24
2023-11-19T09:56:31.960Z,80.23
2023-11-19T10:00:06.178Z,82.16
2023-11-19T10:06:47.925Z,82.05
2023-11-19T10:10:20.420Z,80.95
2023-11-19T10:17:44.159Z,79.30
2023-11-19T10:28:23.966Z,75.04
2023-11-19T10:31:34.470Z,77.52
2023-11-19T10:34:53.982Z,78.95
2023-11-19T10:38:26.877Z,80.29
2023-11-19T10:45:49.255Z,83.47
2023-11-19T10:49:13.815Z,82.09
2023-11-19T10:53:06.506Z,82.53
2023-11-19T10:56:29.029Z,82.53
2023-11-19T10:59:45.350Z,84.46
2023-11-19T11:03:21.622Z,83.58
2023-11-19T11:06:35.589Z,84.45
2023-11-19T11:09:59.321Z,84.11
2023-11-19T11:13:37.793Z,85.13
2023-11-19T11:16:56.286Z,85.85
2023-11-19T11:20:08.002Z,85.66
2023-11-19T11:24:03.575Z,87.36
2023-11-19T11:32:02.266Z,87.92
2023-11-19T11:35:44.732Z,89.38
2023-11-19T11:38:57.492Z,88.12
2023-11-19T11:42:34.605Z,88.57
2023-11-19T11:46:18.144Z,88.56
2023-11-19T11:49:58.729Z,88.92
2023-11-19T11:53:42.523Z,88.95
2023-11-19T11:57:27.560Z,88.78
2023-11-19T12:00:44.335Z,89.10
2023-11-19T12:04:08.653Z,90.11
2023-11-19T12:07:48.739Z,89.29
2023-11-19T12:11:08.558Z,89.97
2023-11-19T12:14:23.495Z,88.64
2023-11-19T12:18:00.046Z,88.28
2023-11-19T12:21:27.393Z,88.58
2023-11-19T12:25:15.987Z,89.76
2023-11-19T12:28:40.546Z,90.07
2023-11-19T12:32:14.553Z,91.22
2023-11-19T12:35:44.745Z,91.82
2023-11-19T12:39:02.456Z,92.03
2023-11-19T12:42:25.458Z,92.21
2023-11-19T12:45:53.257Z,93.20
2023-11-19T12:49:18.045Z,93.65
2023-11-19T12:52:28.351Z,93.32
2023-11-19T12:55:41.335Z,93.77
2023-11-19T13:02:52.661Z,94.24
2023-11-19T13:06:32.967Z,94.72
2023-11-19T13:09:55.602Z,95.30
2023-11-19T13:13:10.773Z,95.65
2023-11-19T13:19:59.748Z,97.37
2023-11-19T13:23:20.162Z,98.06
2023-11-19T13:26:44.596Z,97.37
2023-11-19T13:29:57.576Z,98.10
2023-11-19T13:33:26.670Z,98.01
2023-11-19T13:36:37.938Z,98.25
2023-11-19T13:39:46.362Z,97.32
2023-11-19T13:42:52.753Z,98.38
2023-11-19T13:46:32.481Z,98.67
2023-11-19T13:49:58.925Z,98.37
2023-11-19T13:53:12.917Z,100.00
2023-11-19T13:56:29.805Z,100.00
2023-11-19T13:59:48.136Z,100.00
2023-11-19T14:03:07.863Z,100.00
2023-11-19T14:13:41.871Z,100.00
2023-11-19T14:17:13.783Z,100.00
2023-11-19T14:20:25.052Z,100.00
2023-11-19T14:23:42.073Z,100.00
2023-11-19T14:27:06.980Z,100.00
2023-11-19T14:30:37.795Z,100.00
2023-11-19T14:33:57.615Z,100.00
2023-11-19T14:37:11.073Z,100.00
2023-11-19T14:47:56.444Z,100.00
2023-11-19T14:51:17.584Z,100.00
2023-11-19T14:54:50.182Z,100.00
2023-11-19T14:58:08.736Z,100.00
2023-11-19T15:01:16.536Z,100.00
2023-11-19T15:04:36.114Z,100.00
2023-11-19T15:08:14.068Z,100.00
2023-11-19T15:11:55.064Z,100.00
2023-11-19T15:22:45.411Z,100.00
2023-11-19T15:26:09.309Z,100.00
2023-11-19T15:29:25.379Z,100.00
2023-11-19T15:32:54.374Z,100.00
2023-11-19T15:36:13.810Z,100.00
2023-11-19T15:39:21.386Z,100.00
2023-11-19T15:42:55.294Z,100.00
2023-11-19T15:46:09.649Z,100.00
2023-11-19T15:49:27.457Z,100.00
2023-11-19T15:52:48.049Z,100.00
2023-11-19T15:56:01.401Z,100.00
2023-11-19T15:59:28.101Z,100.00
2023-11-19T16:02:49.748Z,100.00
2023-11-19T16:06:21.236Z,100.00
2023-11-19T16:10:14.303Z,100.00
2023-11-19T16:13:45.110Z,100.00
2023-11-19T16:17:01.321Z,100.00
2023-11-19T16:20:19.142Z,100.00
2023-11-19T16:23:35.019Z,100.00
2023-11-19T16:27:00.689Z,100.00
2023-11-19T16:30:29.254Z,100.00
2023-11-19T16:34:07.039Z,100.00
2023-11-19T16:37:30.610Z,100.00
2023-11-19T16:40:57.028Z,100.00
2023-11-19T16:44:16.909Z,100.00
2023-11-19T16:47:43.518Z,100.00
2023-11-19T16:51:04.784Z,100.00
2023-11-19T16:54:37.520Z,100.00
2023-11-19T17:01:27.399Z,100.00
2023-11-19T17:04:46.233Z,100.00
2023-11-19T17:07:59.254Z,100.00
2023-11-19T17:11:15.449Z,100.00
2023-11-19T17:14:41.387Z,100.00
2023-11-19T17:17:58.901Z,100.00
2023-11-19T17:21:26.576Z,100.00
2023-11-19T17:28:33.339Z,100.00
2023-11-19T17:31:58.248Z,100.00
2023-11-19T17:38:41.778Z,100.00
2023-11-19T17:42:03.836Z,100.00
2023-11-19T17:45:24.299Z,100.00
2023-11-19T17:48:37.870Z,100.00
2023-11-19T17:51:49.251Z,100.00
2023-11-19T17:59:04.429Z,100.00
2023-11-19T18:02:20.926Z,100.00
2023-11-19T18:09:01.066Z,100.00
2023-11-19T18:12:18.089Z,100.00
2023-11-19T18:19:44.656Z,100.00
2023-11-19T18:23:06.220Z,100.00
2023-11-19T18:33:36.783Z,100.00
2023-11-19T18:37:06.525Z,100.00
2023-11-19T18:40:31.715Z,100.00
2023-11-19T18:44:22.417Z,100.00
2023-11-19T18:47:31.960Z,100.00
2023-11-19T18:54:31.434Z,100.00
2023-11-19T19:01:49.802Z,100.00
2023-11-19T19:05:05.764Z,100.00
2023-11-19T19:08:32.436Z,100.00
2023-11-19T19:12:00.782Z,100.00
2023-11-19T19:15:22.758Z,100.00
2023-11-19T19:18:50.680Z,100.00
2023-11-19T19:26:19.912Z,100.00
2023-11-19T19:33:02.695Z,100.00
2023-11-19T19:36:21.185Z,100.00
2023-11-19T19:43:15.217Z,100.00
2023-11-19T19:47:08.703Z,100.00
2023-11-19T19:50:20.403Z,100.00
2023-11-19T19:57:36.125Z,100.00
2023-11-19T20:01:26.464Z,100.00
2023-11-19T20:08:21.710Z,100.00
2023-11-19T20:11:59.267Z,100.00
2023-11-19T20:15:29.760Z,100.00
2023-11-19T20:18:52.629Z,100.00
2023-11-19T20:22:00.880Z,100.00
2023-11-19T20:25:19.645Z,100.00
2023-11-19T20:35:34.562Z,100.00
2023-11-19T20:39:10.392Z,100.00
2023-11-19T20:42:19.139Z,100.00
2023-11-19T20:45:39.920Z,100.00
2023-11-19T20:49:34.088Z,100.00
2023-11-19T21:00:10.012Z,100.00
2023-11-19T21:03:29.866Z,100.00
2023-11-19T21:07:07.862Z,100.00
2023-11-19T21:10:27.145Z,100.00
2023-11-19T21:14:01.366Z,100.00
2023-11-19T21:17:29.493Z,100.00
2023-11-19T21:21:10.103Z,100.00
2023-11-19T21:24:27.001Z,100.00
2023-11-19T21:27:54.579Z,100.00
2023-11-19T21:35:19.450Z,100.00
2023-11-19T21:38:44.909Z,100.00
2023-11-19T21:42:20.573Z,100.00
2023-11-19T21:45:46.755Z,100.00
2023-11-19T21:49:06.958Z,100.00
2023-11-19T21:52:25.333Z,100.00
2023-11-19T21:59:44.402Z,100.00
2023-11-19T22:03:08.394Z,100.00
2023-11-19T22:06:47.303Z,100.00
2023-11-19T22:09:56.290Z,100.00
2023-11-19T22:13:21.854Z,100.00
2023-11-19T22:16:43.087Z,100.00
2023-11-19T22:20:24.386Z,100.00
2023-11-19T22:24:04.023Z,100.00
2023-11-19T22:27:32.734Z,100.00
2023-11-19T22:30:45.377Z,100.00
2023-11-19T22:34:05.696Z,100.00
2023-11-19T22:37:36.693Z,100.00
2023-11-19T22:41:12.879Z,100.00
2023-11-19T22:51:43.866Z,100.00
2023-11-19T22:55:23.162Z,100.00
2023-11-19T22:58:47.623Z,100.00
2023-11-19T23:02:14.323Z,100.00
2023-11-19T23:05:58.049Z,100.00
2023-11-19T23:09:20.460Z,100.00
2023-11-19T23:13:28.162Z,100.00
2023-11-19T23:17:00.250Z,100.00
2023-11-19T23:20:28.614Z,100.00
2023-11-19T23:23:40.692Z,100.00
2023-11-19T23:27:25.488Z,100.00
2023-11-19T23:30:36.842Z,100.00
2023-11-19T23:38:06.300Z,100.00
2023-11-19T23:41:22.700Z,100.00
2023-11-19T23:44:42.341Z,100.00
2023-11-19T23:48:16.240Z,100.00
2023-11-19T23:51:28.267Z,100.00
2023-11-19T23:54:52.075Z,100.00
2023-11-19T23:58:38.485Z,100.00
